sensor_id;sensor_type;location;lat;lon;timestamp;P1;durP1;ratioP1;P2;durP2;ratioP2
36195;SDS011;22237;51.974;4.616;2023-07-24T00:01:36;7.03;;;2.80;;
36195;SDS011;22237;51.974;4.616;2023-07-24T00:04:01;3.60;;;2.27;;
36195;SDS011;22237;51.974;4.616;2023-07-24T00:06:27;4.60;;;2.20;;
36195;SDS011;22237;51.974;4.616;2023-07-24T00:08:52;3.13;;;1.70;;
36195;SDS011;22237;51.974;4.616;2023-07-24T00:11:17;5.10;;;2.27;;
36195;SDS011;22237;51.974;4.616;2023-07-24T00:13:42;3.73;;;1.90;;
36195;SDS011;22237;51.974;4.616;2023-07-24T00:16:08;3.23;;;2.30;;
36195;SDS011;22237;51.974;4.616;2023-07-24T00:18:33;1.83;;;1.52;;
36195;SDS011;22237;51.974;4.616;2023-07-24T00:20:58;2.80;;;2.03;;
36195;SDS011;22237;51.974;4.616;2023-07-24T00:23:23;3.20;;;2.00;;
36195;SDS011;22237;51.974;4.616;2023-07-24T00:25:49;2.33;;;1.80;;
36195;SDS011;22237;51.974;4.616;2023-07-24T00:28:14;10.10;;;2.55;;
36195;SDS011;22237;51.974;4.616;2023-07-24T00:30:39;2.85;;;2.03;;
36195;SDS011;22237;51.974;4.616;2023-07-24T00:33:05;6.78;;;2.13;;
36195;SDS011;22237;51.974;4.616;2023-07-24T00:35:30;5.80;;;1.90;;
36195;SDS011;22237;51.974;4.616;2023-07-24T00:37:55;3.77;;;2.23;;
36195;SDS011;22237;51.974;4.616;2023-07-24T00:40:20;3.00;;;1.95;;
36195;SDS011;22237;51.974;4.616;2023-07-24T00:42:46;3.57;;;1.93;;
36195;SDS011;22237;51.974;4.616;2023-07-24T00:45:12;3.42;;;2.10;;
36195;SDS011;22237;51.974;4.616;2023-07-24T00:47:37;3.93;;;1.77;;
36195;SDS011;22237;51.974;4.616;2023-07-24T00:50:02;5.25;;;1.92;;
36195;SDS011;22237;51.974;4.616;2023-07-24T00:52:27;2.63;;;1.95;;
36195;SDS011;22237;51.974;4.616;2023-07-24T00:54:53;2.97;;;1.97;;
36195;SDS011;22237;51.974;4.616;2023-07-24T00:57:18;2.78;;;1.65;;
36195;SDS011;22237;51.974;4.616;2023-07-24T00:59:44;3.85;;;2.17;;
36195;SDS011;22237;51.974;4.616;2023-07-24T01:02:10;2.15;;;1.83;;
36195;SDS011;22237;51.974;4.616;2023-07-24T01:04:36;3.55;;;1.92;;
36195;SDS011;22237;51.974;4.616;2023-07-24T01:07:02;4.95;;;1.98;;
36195;SDS011;22237;51.974;4.616;2023-07-24T01:09:27;4.93;;;2.25;;
36195;SDS011;22237;51.974;4.616;2023-07-24T01:12:03;2.27;;;2.03;;
36195;SDS011;22237;51.974;4.616;2023-07-24T01:14:33;3.63;;;2.20;;
36195;SDS011;22237;51.974;4.616;2023-07-24T01:17:00;3.63;;;2.05;;
36195;SDS011;22237;51.974;4.616;2023-07-24T01:22:07;3.75;;;1.98;;
36195;SDS011;22237;51.974;4.616;2023-07-24T01:24:42;5.22;;;2.63;;
36195;SDS011;22237;51.974;4.616;2023-07-24T01:27:09;3.17;;;1.80;;
36195;SDS011;22237;51.974;4.616;2023-07-24T01:29:35;5.60;;;2.20;;
36195;SDS011;22237;51.974;4.616;2023-07-24T01:32:00;3.63;;;1.90;;
36195;SDS011;22237;51.974;4.616;2023-07-24T01:34:25;3.35;;;1.95;;
36195;SDS011;22237;51.974;4.616;2023-07-24T01:36:50;4.57;;;2.17;;
36195;SDS011;22237;51.974;4.616;2023-07-24T01:39:16;3.88;;;2.13;;
36195;SDS011;22237;51.974;4.616;2023-07-24T01:41:42;4.60;;;2.35;;
36195;SDS011;22237;51.974;4.616;2023-07-24T01:44:07;3.80;;;1.95;;
36195;SDS011;22237;51.974;4.616;2023-07-24T01:46:33;3.03;;;2.20;;
36195;SDS011;22237;51.974;4.616;2023-07-24T01:48:58;4.17;;;2.10;;
36195;SDS011;22237;51.974;4.616;2023-07-24T01:51:23;2.15;;;1.75;;
36195;SDS011;22237;51.974;4.616;2023-07-24T01:53:48;3.37;;;2.10;;
36195;SDS011;22237;51.974;4.616;2023-07-24T01:56:14;5.20;;;2.00;;
36195;SDS011;22237;51.974;4.616;2023-07-24T01:58:39;3.17;;;2.00;;
36195;SDS011;22237;51.974;4.616;2023-07-24T02:01:04;6.57;;;2.63;;
36195;SDS011;22237;51.974;4.616;2023-07-24T02:03:29;4.47;;;2.60;;
36195;SDS011;22237;51.974;4.616;2023-07-24T02:05:54;4.40;;;2.50;;
36195;SDS011;22237;51.974;4.616;2023-07-24T02:08:20;3.67;;;2.23;;
36195;SDS011;22237;51.974;4.616;2023-07-24T02:10:48;3.23;;;2.27;;
36195;SDS011;22237;51.974;4.616;2023-07-24T02:13:13;7.40;;;2.53;;
36195;SDS011;22237;51.974;4.616;2023-07-24T02:15:38;5.53;;;2.70;;
36195;SDS011;22237;51.974;4.616;2023-07-24T02:18:04;5.28;;;2.72;;
36195;SDS011;22237;51.974;4.616;2023-07-24T02:20:30;12.73;;;3.30;;
36195;SDS011;22237;51.974;4.616;2023-07-24T02:22:55;3.47;;;2.67;;
36195;SDS011;22237;51.974;4.616;2023-07-24T02:25:20;6.68;;;2.92;;
36195;SDS011;22237;51.974;4.616;2023-07-24T02:27:45;6.67;;;2.50;;
36195;SDS011;22237;51.974;4.616;2023-07-24T02:30:11;6.57;;;3.20;;
36195;SDS011;22237;51.974;4.616;2023-07-24T02:32:36;3.47;;;2.90;;
36195;SDS011;22237;51.974;4.616;2023-07-24T02:35:01;4.10;;;2.80;;
36195;SDS011;22237;51.974;4.616;2023-07-24T02:37:27;9.65;;;3.05;;
36195;SDS011;22237;51.974;4.616;2023-07-24T02:39:52;6.40;;;3.30;;
36195;SDS011;22237;51.974;4.616;2023-07-24T02:42:18;4.95;;;2.80;;
36195;SDS011;22237;51.974;4.616;2023-07-24T02:44:43;4.90;;;2.80;;
36195;SDS011;22237;51.974;4.616;2023-07-24T02:47:08;8.55;;;3.35;;
36195;SDS011;22237;51.974;4.616;2023-07-24T02:49:34;7.20;;;4.20;;
36195;SDS011;22237;51.974;4.616;2023-07-24T02:51:59;5.82;;;2.80;;
36195;SDS011;22237;51.974;4.616;2023-07-24T02:54:25;7.40;;;3.10;;
36195;SDS011;22237;51.974;4.616;2023-07-24T02:56:50;4.82;;;3.03;;
36195;SDS011;22237;51.974;4.616;2023-07-24T02:59:16;3.95;;;3.05;;
36195;SDS011;22237;51.974;4.616;2023-07-24T03:01:41;5.53;;;2.53;;
36195;SDS011;22237;51.974;4.616;2023-07-24T03:04:09;7.57;;;3.53;;
36195;SDS011;22237;51.974;4.616;2023-07-24T03:06:34;8.98;;;3.22;;
36195;SDS011;22237;51.974;4.616;2023-07-24T03:08:59;5.75;;;2.78;;
36195;SDS011;22237;51.974;4.616;2023-07-24T03:11:25;7.20;;;3.30;;
36195;SDS011;22237;51.974;4.616;2023-07-24T03:13:51;5.30;;;3.07;;
36195;SDS011;22237;51.974;4.616;2023-07-24T03:16:16;8.53;;;2.67;;
36195;SDS011;22237;51.974;4.616;2023-07-24T03:18:45;6.25;;;2.92;;
36195;SDS011;22237;51.974;4.616;2023-07-24T03:21:11;5.53;;;3.23;;
36195;SDS011;22237;51.974;4.616;2023-07-24T03:23:36;3.10;;;2.40;;
36195;SDS011;22237;51.974;4.616;2023-07-24T03:26:01;4.10;;;2.40;;
36195;SDS011;22237;51.974;4.616;2023-07-24T03:28:26;7.20;;;3.33;;
36195;SDS011;22237;51.974;4.616;2023-07-24T03:30:52;6.07;;;3.28;;
36195;SDS011;22237;51.974;4.616;2023-07-24T03:33:17;6.83;;;3.03;;
36195;SDS011;22237;51.974;4.616;2023-07-24T03:35:42;6.20;;;2.53;;
36195;SDS011;22237;51.974;4.616;2023-07-24T03:38:11;5.30;;;3.10;;
36195;SDS011;22237;51.974;4.616;2023-07-24T03:40:36;7.28;;;2.38;;
36195;SDS011;22237;51.974;4.616;2023-07-24T03:43:01;7.83;;;3.20;;
36195;SDS011;22237;51.974;4.616;2023-07-24T03:45:26;7.90;;;3.10;;
36195;SDS011;22237;51.974;4.616;2023-07-24T03:47:52;6.88;;;3.30;;
36195;SDS011;22237;51.974;4.616;2023-07-24T03:50:17;5.85;;;3.20;;
36195;SDS011;22237;51.974;4.616;2023-07-24T03:52:42;7.25;;;3.35;;
36195;SDS011;22237;51.974;4.616;2023-07-24T03:55:07;6.15;;;3.05;;
36195;SDS011;22237;51.974;4.616;2023-07-24T03:57:33;7.22;;;3.33;;
36195;SDS011;22237;51.974;4.616;2023-07-24T03:59:58;6.93;;;3.17;;
36195;SDS011;22237;51.974;4.616;2023-07-24T04:02:23;11.30;;;3.38;;
36195;SDS011;22237;51.974;4.616;2023-07-24T04:04:48;8.57;;;3.83;;
36195;SDS011;22237;51.974;4.616;2023-07-24T04:07:14;9.13;;;3.10;;
36195;SDS011;22237;51.974;4.616;2023-07-24T04:09:39;8.93;;;4.68;;
36195;SDS011;22237;51.974;4.616;2023-07-24T04:12:04;7.00;;;3.63;;
36195;SDS011;22237;51.974;4.616;2023-07-24T04:14:30;6.75;;;2.92;;
36195;SDS011;22237;51.974;4.616;2023-07-24T04:16:55;9.63;;;3.80;;
36195;SDS011;22237;51.974;4.616;2023-07-24T04:19:20;5.93;;;3.23;;
36195;SDS011;22237;51.974;4.616;2023-07-24T04:21:46;8.40;;;3.30;;
36195;SDS011;22237;51.974;4.616;2023-07-24T04:24:11;8.93;;;3.60;;
36195;SDS011;22237;51.974;4.616;2023-07-24T04:26:36;5.88;;;3.00;;
36195;SDS011;22237;51.974;4.616;2023-07-24T04:29:01;11.65;;;3.85;;
36195;SDS011;22237;51.974;4.616;2023-07-24T04:31:27;6.60;;;3.88;;
36195;SDS011;22237;51.974;4.616;2023-07-24T04:33:52;6.80;;;3.03;;
36195;SDS011;22237;51.974;4.616;2023-07-24T04:36:17;14.60;;;3.37;;
36195;SDS011;22237;51.974;4.616;2023-07-24T04:38:42;8.20;;;3.10;;
36195;SDS011;22237;51.974;4.616;2023-07-24T04:41:07;10.50;;;2.70;;
36195;SDS011;22237;51.974;4.616;2023-07-24T04:43:33;6.57;;;3.08;;
36195;SDS011;22237;51.974;4.616;2023-07-24T04:45:59;5.85;;;2.63;;
36195;SDS011;22237;51.974;4.616;2023-07-24T04:48:24;6.97;;;2.65;;
36195;SDS011;22237;51.974;4.616;2023-07-24T04:50:53;10.77;;;3.20;;
36195;SDS011;22237;51.974;4.616;2023-07-24T04:53:18;7.30;;;2.97;;
36195;SDS011;22237;51.974;4.616;2023-07-24T04:55:45;6.27;;;2.60;;
36195;SDS011;22237;51.974;4.616;2023-07-24T04:58:10;5.85;;;2.17;;
36195;SDS011;22237;51.974;4.616;2023-07-24T05:00:35;7.43;;;2.55;;
36195;SDS011;22237;51.974;4.616;2023-07-24T05:03:00;11.60;;;2.27;;
36195;SDS011;22237;51.974;4.616;2023-07-24T05:05:26;6.33;;;2.20;;
36195;SDS011;22237;51.974;4.616;2023-07-24T05:07:51;3.80;;;1.80;;
36195;SDS011;22237;51.974;4.616;2023-07-24T05:10:16;5.63;;;2.70;;
36195;SDS011;22237;51.974;4.616;2023-07-24T05:12:41;5.63;;;2.40;;
36195;SDS011;22237;51.974;4.616;2023-07-24T05:15:09;6.80;;;2.30;;
36195;SDS011;22237;51.974;4.616;2023-07-24T05:17:35;4.43;;;2.58;;
36195;SDS011;22237;51.974;4.616;2023-07-24T05:20:00;3.10;;;1.90;;
36195;SDS011;22237;51.974;4.616;2023-07-24T05:22:25;3.17;;;1.80;;
36195;SDS011;22237;51.974;4.616;2023-07-24T05:24:51;6.50;;;2.40;;
36195;SDS011;22237;51.974;4.616;2023-07-24T05:27:16;2.83;;;2.40;;
36195;SDS011;22237;51.974;4.616;2023-07-24T05:29:41;7.13;;;2.40;;
36195;SDS011;22237;51.974;4.616;2023-07-24T05:32:06;4.27;;;1.87;;
36195;SDS011;22237;51.974;4.616;2023-07-24T05:34:31;11.10;;;2.60;;
36195;SDS011;22237;51.974;4.616;2023-07-24T05:36:57;3.93;;;1.60;;
36195;SDS011;22237;51.974;4.616;2023-07-24T05:39:22;4.97;;;2.40;;
36195;SDS011;22237;51.974;4.616;2023-07-24T05:41:47;6.15;;;1.92;;
36195;SDS011;22237;51.974;4.616;2023-07-24T05:44:13;2.67;;;1.75;;
36195;SDS011;22237;51.974;4.616;2023-07-24T05:46:38;3.30;;;1.87;;
36195;SDS011;22237;51.974;4.616;2023-07-24T05:49:04;4.38;;;1.90;;
36195;SDS011;22237;51.974;4.616;2023-07-24T05:51:29;5.40;;;2.05;;
36195;SDS011;22237;51.974;4.616;2023-07-24T05:53:54;3.38;;;1.83;;
36195;SDS011;22237;51.974;4.616;2023-07-24T05:56:19;6.90;;;2.33;;
36195;SDS011;22237;51.974;4.616;2023-07-24T05:58:45;6.00;;;2.17;;
36195;SDS011;22237;51.974;4.616;2023-07-24T06:01:10;10.23;;;2.23;;
36195;SDS011;22237;51.974;4.616;2023-07-24T06:03:35;9.43;;;2.42;;
36195;SDS011;22237;51.974;4.616;2023-07-24T06:06:01;5.40;;;1.85;;
36195;SDS011;22237;51.974;4.616;2023-07-24T06:08:26;3.20;;;1.77;;
36195;SDS011;22237;51.974;4.616;2023-07-24T06:10:52;5.18;;;2.05;;
36195;SDS011;22237;51.974;4.616;2023-07-24T06:13:17;4.90;;;2.05;;
36195;SDS011;22237;51.974;4.616;2023-07-24T06:15:43;6.40;;;2.22;;
36195;SDS011;22237;51.974;4.616;2023-07-24T06:18:08;6.18;;;2.08;;
36195;SDS011;22237;51.974;4.616;2023-07-24T06:20:34;3.63;;;2.08;;
36195;SDS011;22237;51.974;4.616;2023-07-24T06:22:59;5.25;;;2.15;;
36195;SDS011;22237;51.974;4.616;2023-07-24T06:25:24;6.43;;;1.93;;
36195;SDS011;22237;51.974;4.616;2023-07-24T06:27:49;5.25;;;2.17;;
36195;SDS011;22237;51.974;4.616;2023-07-24T06:30:15;10.27;;;1.90;;
36195;SDS011;22237;51.974;4.616;2023-07-24T06:32:40;6.75;;;2.17;;
36195;SDS011;22237;51.974;4.616;2023-07-24T06:35:05;12.33;;;3.33;;
36195;SDS011;22237;51.974;4.616;2023-07-24T06:37:33;6.50;;;2.30;;
36195;SDS011;22237;51.974;4.616;2023-07-24T06:39:58;6.30;;;2.10;;
36195;SDS011;22237;51.974;4.616;2023-07-24T06:42:23;3.03;;;1.90;;
36195;SDS011;22237;51.974;4.616;2023-07-24T06:44:48;26.45;;;3.10;;
36195;SDS011;22237;51.974;4.616;2023-07-24T06:47:14;3.58;;;1.98;;
36195;SDS011;22237;51.974;4.616;2023-07-24T06:49:39;7.97;;;2.03;;
36195;SDS011;22237;51.974;4.616;2023-07-24T06:52:04;5.30;;;2.00;;
36195;SDS011;22237;51.974;4.616;2023-07-24T06:54:29;4.45;;;2.00;;
36195;SDS011;22237;51.974;4.616;2023-07-24T06:56:55;6.23;;;2.67;;
36195;SDS011;22237;51.974;4.616;2023-07-24T06:59:20;5.10;;;2.10;;
36195;SDS011;22237;51.974;4.616;2023-07-24T07:01:45;4.07;;;1.90;;
36195;SDS011;22237;51.974;4.616;2023-07-24T07:04:10;7.20;;;2.53;;
36195;SDS011;22237;51.974;4.616;2023-07-24T07:06:35;6.40;;;1.77;;
36195;SDS011;22237;51.974;4.616;2023-07-24T07:09:01;8.57;;;2.20;;
36195;SDS011;22237;51.974;4.616;2023-07-24T07:11:26;9.37;;;2.07;;
36195;SDS011;22237;51.974;4.616;2023-07-24T07:13:51;5.67;;;2.23;;
36195;SDS011;22237;51.974;4.616;2023-07-24T07:16:16;5.93;;;2.43;;
36195;SDS011;22237;51.974;4.616;2023-07-24T07:18:43;7.82;;;1.85;;
36195;SDS011;22237;51.974;4.616;2023-07-24T07:21:09;5.67;;;2.73;;
36195;SDS011;22237;51.974;4.616;2023-07-24T07:23:34;7.77;;;2.83;;
36195;SDS011;22237;51.974;4.616;2023-07-24T07:25:59;5.10;;;2.30;;
36195;SDS011;22237;51.974;4.616;2023-07-24T07:28:24;6.20;;;2.05;;
36195;SDS011;22237;51.974;4.616;2023-07-24T07:30:50;6.60;;;2.45;;
36195;SDS011;22237;51.974;4.616;2023-07-24T07:33:15;4.20;;;2.10;;
36195;SDS011;22237;51.974;4.616;2023-07-24T07:35:40;3.42;;;2.25;;
36195;SDS011;22237;51.974;4.616;2023-07-24T07:38:05;6.40;;;2.50;;
36195;SDS011;22237;51.974;4.616;2023-07-24T07:40:30;9.37;;;2.77;;
36195;SDS011;22237;51.974;4.616;2023-07-24T07:42:56;6.97;;;2.33;;
36195;SDS011;22237;51.974;4.616;2023-07-24T07:45:22;6.82;;;2.53;;
36195;SDS011;22237;51.974;4.616;2023-07-24T07:47:47;7.88;;;2.78;;
36195;SDS011;22237;51.974;4.616;2023-07-24T07:50:12;5.88;;;2.42;;
36195;SDS011;22237;51.974;4.616;2023-07-24T07:52:38;5.38;;;2.83;;
36195;SDS011;22237;51.974;4.616;2023-07-24T07:55:03;6.78;;;3.05;;
36195;SDS011;22237;51.974;4.616;2023-07-24T07:57:31;6.55;;;2.78;;
36195;SDS011;22237;51.974;4.616;2023-07-24T07:59:56;9.18;;;3.10;;
36195;SDS011;22237;51.974;4.616;2023-07-24T08:02:21;4.97;;;2.63;;
36195;SDS011;22237;51.974;4.616;2023-07-24T08:04:47;12.33;;;3.73;;
36195;SDS011;22237;51.974;4.616;2023-07-24T08:07:12;6.18;;;3.53;;
36195;SDS011;22237;51.974;4.616;2023-07-24T08:09:37;11.63;;;3.40;;
36195;SDS011;22237;51.974;4.616;2023-07-24T08:12:03;5.97;;;3.13;;
36195;SDS011;22237;51.974;4.616;2023-07-24T08:14:28;7.25;;;3.03;;
36195;SDS011;22237;51.974;4.616;2023-07-24T08:16:54;4.18;;;2.75;;
36195;SDS011;22237;51.974;4.616;2023-07-24T08:19:19;13.47;;;3.00;;
36195;SDS011;22237;51.974;4.616;2023-07-24T08:21:44;5.13;;;2.78;;
36195;SDS011;22237;51.974;4.616;2023-07-24T08:24:11;7.47;;;2.85;;
36195;SDS011;22237;51.974;4.616;2023-07-24T08:26:36;4.10;;;2.80;;
36195;SDS011;22237;51.974;4.616;2023-07-24T08:29:01;7.47;;;2.90;;
36195;SDS011;22237;51.974;4.616;2023-07-24T08:31:27;7.07;;;3.07;;
36195;SDS011;22237;51.974;4.616;2023-07-24T08:33:53;6.20;;;3.00;;
36195;SDS011;22237;51.974;4.616;2023-07-24T08:36:19;9.02;;;2.85;;
36195;SDS011;22237;51.974;4.616;2023-07-24T08:38:45;7.00;;;2.73;;
36195;SDS011;22237;51.974;4.616;2023-07-24T08:41:11;6.82;;;2.80;;
36195;SDS011;22237;51.974;4.616;2023-07-24T08:43:37;7.32;;;3.22;;
36195;SDS011;22237;51.974;4.616;2023-07-24T08:46:03;6.22;;;3.20;;
36195;SDS011;22237;51.974;4.616;2023-07-24T08:48:29;10.50;;;3.20;;
36195;SDS011;22237;51.974;4.616;2023-07-24T08:50:55;7.30;;;2.80;;
36195;SDS011;22237;51.974;4.616;2023-07-24T08:53:21;7.22;;;2.42;;
36195;SDS011;22237;51.974;4.616;2023-07-24T08:55:47;9.43;;;2.75;;
36195;SDS011;22237;51.974;4.616;2023-07-24T08:58:13;4.75;;;2.25;;
36195;SDS011;22237;51.974;4.616;2023-07-24T09:00:39;4.03;;;2.63;;
36195;SDS011;22237;51.974;4.616;2023-07-24T09:03:04;8.80;;;2.92;;
36195;SDS011;22237;51.974;4.616;2023-07-24T09:05:30;7.95;;;2.78;;
36195;SDS011;22237;51.974;4.616;2023-07-24T09:07:55;4.82;;;2.20;;
36195;SDS011;22237;51.974;4.616;2023-07-24T09:10:24;7.27;;;3.23;;
36195;SDS011;22237;51.974;4.616;2023-07-24T09:12:49;5.57;;;2.63;;
36195;SDS011;22237;51.974;4.616;2023-07-24T09:15:14;8.23;;;2.63;;
36195;SDS011;22237;51.974;4.616;2023-07-24T09:17:47;13.40;;;3.67;;
36195;SDS011;22237;51.974;4.616;2023-07-24T09:20:12;2.88;;;2.20;;
36195;SDS011;22237;51.974;4.616;2023-07-24T09:22:37;5.70;;;2.80;;
36195;SDS011;22237;51.974;4.616;2023-07-24T09:25:12;5.18;;;2.58;;
36195;SDS011;22237;51.974;4.616;2023-07-24T09:27:37;5.20;;;2.37;;
36195;SDS011;22237;51.974;4.616;2023-07-24T09:30:11;5.55;;;2.40;;
36195;SDS011;22237;51.974;4.616;2023-07-24T09:32:37;6.15;;;2.65;;
36195;SDS011;22237;51.974;4.616;2023-07-24T09:35:03;6.45;;;2.95;;
36195;SDS011;22237;51.974;4.616;2023-07-24T09:37:32;5.18;;;2.45;;
36195;SDS011;22237;51.974;4.616;2023-07-24T09:39:57;9.35;;;2.97;;
36195;SDS011;22237;51.974;4.616;2023-07-24T09:47:19;13.13;;;2.97;;
36195;SDS011;22237;51.974;4.616;2023-07-24T09:49:44;5.55;;;2.10;;
36195;SDS011;22237;51.974;4.616;2023-07-24T09:52:10;6.35;;;2.55;;
36195;SDS011;22237;51.974;4.616;2023-07-24T09:54:38;5.40;;;2.45;;
36195;SDS011;22237;51.974;4.616;2023-07-24T09:57:10;5.15;;;2.90;;
36195;SDS011;22237;51.974;4.616;2023-07-24T09:59:36;3.72;;;1.90;;
36195;SDS011;22237;51.974;4.616;2023-07-24T10:02:01;3.78;;;2.13;;
36195;SDS011;22237;51.974;4.616;2023-07-24T10:04:27;4.63;;;2.13;;
36195;SDS011;22237;51.974;4.616;2023-07-24T10:06:53;5.03;;;2.10;;
36195;SDS011;22237;51.974;4.616;2023-07-24T10:09:19;10.82;;;2.30;;
36195;SDS011;22237;51.974;4.616;2023-07-24T10:11:46;3.30;;;2.00;;
36195;SDS011;22237;51.974;4.616;2023-07-24T10:14:11;5.45;;;2.28;;
36195;SDS011;22237;51.974;4.616;2023-07-24T10:16:37;4.60;;;2.95;;
36195;SDS011;22237;51.974;4.616;2023-07-24T10:19:12;12.20;;;3.38;;
36195;SDS011;22237;51.974;4.616;2023-07-24T10:21:37;3.83;;;2.10;;
36195;SDS011;22237;51.974;4.616;2023-07-24T10:24:02;6.13;;;2.30;;
36195;SDS011;22237;51.974;4.616;2023-07-24T10:26:27;4.43;;;3.00;;
36195;SDS011;22237;51.974;4.616;2023-07-24T10:28:53;6.25;;;2.28;;
36195;SDS011;22237;51.974;4.616;2023-07-24T10:31:20;5.63;;;1.92;;
36195;SDS011;22237;51.974;4.616;2023-07-24T10:33:45;2.78;;;1.90;;
36195;SDS011;22237;51.974;4.616;2023-07-24T10:36:11;3.50;;;2.00;;
36195;SDS011;22237;51.974;4.616;2023-07-24T10:38:42;2.85;;;1.70;;
36195;SDS011;22237;51.974;4.616;2023-07-24T10:41:08;5.30;;;1.88;;
36195;SDS011;22237;51.974;4.616;2023-07-24T10:44:06;2.45;;;1.67;;
36195;SDS011;22237;51.974;4.616;2023-07-24T10:46:34;5.40;;;1.98;;
36195;SDS011;22237;51.974;4.616;2023-07-24T10:49:00;7.60;;;2.53;;
36195;SDS011;22237;51.974;4.616;2023-07-24T10:51:25;5.43;;;1.88;;
36195;SDS011;22237;51.974;4.616;2023-07-24T10:53:50;4.33;;;2.33;;
36195;SDS011;22237;51.974;4.616;2023-07-24T10:56:16;4.55;;;1.98;;
36195;SDS011;22237;51.974;4.616;2023-07-24T10:58:42;4.00;;;1.98;;
36195;SDS011;22237;51.974;4.616;2023-07-24T11:01:07;4.60;;;2.13;;
36195;SDS011;22237;51.974;4.616;2023-07-24T11:03:37;8.27;;;2.35;;
36195;SDS011;22237;51.974;4.616;2023-07-24T11:06:03;3.30;;;1.77;;
36195;SDS011;22237;51.974;4.616;2023-07-24T11:08:28;2.72;;;2.00;;
36195;SDS011;22237;51.974;4.616;2023-07-24T11:10:57;4.05;;;1.95;;
36195;SDS011;22237;51.974;4.616;2023-07-24T11:13:23;2.00;;;1.60;;
36195;SDS011;22237;51.974;4.616;2023-07-24T11:15:49;4.07;;;2.30;;
36195;SDS011;22237;51.974;4.616;2023-07-24T11:18:15;3.05;;;1.80;;
36195;SDS011;22237;51.974;4.616;2023-07-24T11:20:44;2.67;;;1.67;;
36195;SDS011;22237;51.974;4.616;2023-07-24T11:23:10;4.05;;;2.33;;
36195;SDS011;22237;51.974;4.616;2023-07-24T11:25:35;3.22;;;1.80;;
36195;SDS011;22237;51.974;4.616;2023-07-24T11:28:01;5.82;;;1.77;;
36195;SDS011;22237;51.974;4.616;2023-07-24T11:30:29;4.72;;;1.90;;
36195;SDS011;22237;51.974;4.616;2023-07-24T11:32:54;3.05;;;1.88;;
36195;SDS011;22237;51.974;4.616;2023-07-24T11:35:21;4.43;;;2.00;;
36195;SDS011;22237;51.974;4.616;2023-07-24T11:37:46;2.95;;;1.88;;
36195;SDS011;22237;51.974;4.616;2023-07-24T11:40:12;2.35;;;1.77;;
36195;SDS011;22237;51.974;4.616;2023-07-24T11:42:40;3.80;;;1.85;;
36195;SDS011;22237;51.974;4.616;2023-07-24T11:45:07;2.88;;;2.00;;
36195;SDS011;22237;51.974;4.616;2023-07-24T11:47:44;3.05;;;2.45;;
36195;SDS011;22237;51.974;4.616;2023-07-24T11:50:09;6.38;;;2.28;;
36195;SDS011;22237;51.974;4.616;2023-07-24T11:55:08;5.53;;;2.25;;
36195;SDS011;22237;51.974;4.616;2023-07-24T11:57:33;7.75;;;3.08;;
36195;SDS011;22237;51.974;4.616;2023-07-24T11:59:58;4.68;;;1.77;;
36195;SDS011;22237;51.974;4.616;2023-07-24T12:02:27;2.88;;;2.28;;
36195;SDS011;22237;51.974;4.616;2023-07-24T12:07:21;5.50;;;2.60;;
36195;SDS011;22237;51.974;4.616;2023-07-24T12:09:52;6.55;;;2.42;;
36195;SDS011;22237;51.974;4.616;2023-07-24T12:12:18;3.25;;;2.20;;
36195;SDS011;22237;51.974;4.616;2023-07-24T12:14:43;3.08;;;1.88;;
36195;SDS011;22237;51.974;4.616;2023-07-24T12:17:08;2.10;;;1.58;;
36195;SDS011;22237;51.974;4.616;2023-07-24T12:19:37;4.78;;;1.77;;
36195;SDS011;22237;51.974;4.616;2023-07-24T12:22:02;2.65;;;1.73;;
36195;SDS011;22237;51.974;4.616;2023-07-24T12:24:29;1.63;;;1.42;;
36195;SDS011;22237;51.974;4.616;2023-07-24T12:26:54;4.28;;;1.70;;
36195;SDS011;22237;51.974;4.616;2023-07-24T12:29:19;1.70;;;1.60;;
36195;SDS011;22237;51.974;4.616;2023-07-24T12:31:44;2.40;;;1.67;;
36195;SDS011;22237;51.974;4.616;2023-07-24T12:34:10;1.50;;;1.40;;
36195;SDS011;22237;51.974;4.616;2023-07-24T12:36:35;2.50;;;1.50;;
36195;SDS011;22237;51.974;4.616;2023-07-24T12:39:00;1.73;;;1.27;;
36195;SDS011;22237;51.974;4.616;2023-07-24T12:41:25;1.37;;;1.27;;
36195;SDS011;22237;51.974;4.616;2023-07-24T12:43:50;3.03;;;1.40;;
36195;SDS011;22237;51.974;4.616;2023-07-24T12:46:16;2.67;;;1.50;;
36195;SDS011;22237;51.974;4.616;2023-07-24T12:48:41;3.80;;;1.40;;
36195;SDS011;22237;51.974;4.616;2023-07-24T12:51:07;1.40;;;1.30;;
36195;SDS011;22237;51.974;4.616;2023-07-24T12:53:32;2.70;;;1.30;;
36195;SDS011;22237;51.974;4.616;2023-07-24T12:55:58;1.42;;;1.33;;
36195;SDS011;22237;51.974;4.616;2023-07-24T12:58:23;1.33;;;1.20;;
36195;SDS011;22237;51.974;4.616;2023-07-24T13:00:48;3.50;;;1.70;;
36195;SDS011;22237;51.974;4.616;2023-07-24T13:03:13;3.40;;;1.67;;
36195;SDS011;22237;51.974;4.616;2023-07-24T13:05:39;2.77;;;1.17;;
36195;SDS011;22237;51.974;4.616;2023-07-24T13:08:04;1.15;;;1.10;;
36195;SDS011;22237;51.974;4.616;2023-07-24T13:10:29;3.63;;;1.48;;
36195;SDS011;22237;51.974;4.616;2023-07-24T13:12:54;1.25;;;1.10;;
36195;SDS011;22237;51.974;4.616;2023-07-24T13:15:20;4.03;;;1.20;;
36195;SDS011;22237;51.974;4.616;2023-07-24T13:17:45;4.00;;;1.30;;
36195;SDS011;22237;51.974;4.616;2023-07-24T13:20:11;2.25;;;0.80;;
36195;SDS011;22237;51.974;4.616;2023-07-24T13:22:36;3.53;;;1.17;;
36195;SDS011;22237;51.974;4.616;2023-07-24T13:25:02;3.40;;;0.83;;
36195;SDS011;22237;51.974;4.616;2023-07-24T13:27:27;2.97;;;0.95;;
36195;SDS011;22237;51.974;4.616;2023-07-24T13:29:53;3.00;;;0.90;;
36195;SDS011;22237;51.974;4.616;2023-07-24T13:32:18;1.85;;;1.27;;
36195;SDS011;22237;51.974;4.616;2023-07-24T13:34:43;2.50;;;1.20;;
36195;SDS011;22237;51.974;4.616;2023-07-24T13:37:09;1.38;;;0.90;;
36195;SDS011;22237;51.974;4.616;2023-07-24T13:39:35;3.43;;;0.90;;
36195;SDS011;22237;51.974;4.616;2023-07-24T13:42:00;4.68;;;1.38;;
36195;SDS011;22237;51.974;4.616;2023-07-24T13:44:26;1.33;;;1.23;;
36195;SDS011;22237;51.974;4.616;2023-07-24T13:46:51;5.80;;;1.23;;
36195;SDS011;22237;51.974;4.616;2023-07-24T13:49:16;2.93;;;0.90;;
36195;SDS011;22237;51.974;4.616;2023-07-24T13:51:41;3.53;;;1.20;;
36195;SDS011;22237;51.974;4.616;2023-07-24T13:54:06;4.23;;;1.00;;
36195;SDS011;22237;51.974;4.616;2023-07-24T13:56:32;1.10;;;0.80;;
36195;SDS011;22237;51.974;4.616;2023-07-24T13:59:00;3.42;;;1.23;;
36195;SDS011;22237;51.974;4.616;2023-07-24T14:01:25;3.78;;;0.95;;
36195;SDS011;22237;51.974;4.616;2023-07-24T14:03:50;3.22;;;1.05;;
36195;SDS011;22237;51.974;4.616;2023-07-24T14:06:15;0.70;;;0.70;;
36195;SDS011;22237;51.974;4.616;2023-07-24T14:08:41;3.30;;;1.00;;
36195;SDS011;22237;51.974;4.616;2023-07-24T14:11:06;3.30;;;1.00;;
36195;SDS011;22237;51.974;4.616;2023-07-24T14:13:31;4.97;;;1.37;;
36195;SDS011;22237;51.974;4.616;2023-07-24T14:15:56;1.40;;;1.00;;
36195;SDS011;22237;51.974;4.616;2023-07-24T14:18:21;6.03;;;1.20;;
36195;SDS011;22237;51.974;4.616;2023-07-24T14:20:47;2.17;;;0.80;;
36195;SDS011;22237;51.974;4.616;2023-07-24T14:23:12;1.52;;;1.08;;
36195;SDS011;22237;51.974;4.616;2023-07-24T14:25:37;5.75;;;1.10;;
36195;SDS011;22237;51.974;4.616;2023-07-24T14:28:03;9.20;;;1.00;;
36195;SDS011;22237;51.974;4.616;2023-07-24T14:30:28;4.43;;;0.93;;
36195;SDS011;22237;51.974;4.616;2023-07-24T14:32:53;1.92;;;0.70;;
36195;SDS011;22237;51.974;4.616;2023-07-24T14:35:19;6.85;;;0.90;;
36195;SDS011;22237;51.974;4.616;2023-07-24T14:37:44;4.15;;;1.00;;
36195;SDS011;22237;51.974;4.616;2023-07-24T14:40:10;5.37;;;1.10;;
36195;SDS011;22237;51.974;4.616;2023-07-24T14:42:35;4.70;;;0.88;;
36195;SDS011;22237;51.974;4.616;2023-07-24T14:45:00;5.87;;;1.40;;
36195;SDS011;22237;51.974;4.616;2023-07-24T14:47:27;1.10;;;0.65;;
36195;SDS011;22237;51.974;4.616;2023-07-24T14:49:53;1.52;;;0.68;;
36195;SDS011;22237;51.974;4.616;2023-07-24T14:52:18;7.63;;;1.57;;